Apollo — V7JF8 — position and weather

sailwx.info

Track history (hours):
 
Tides and Currents Weather Stations Pressure Air Temp Water Temp Dewpoint Dewpoint Depression Visibility Wind Speed Wind Dir Waves Ship Positions

Apollo

Last reported at 2017-Nov-05 16:58 UTC. Time now 2017-Nov-24 21:58 UTC.
Position N 37°30' W 123°12'.
Warning: this ship's position is 19 days out of date.

Length 225 m; draft 11.9 m.

Type: Cargo ship. MMSI: 538002510.

Date/timePositionNaut miles runAvg speedWind from/ knotsBaromVisibWave heightAir tempDewpointWater temp
2017-Nov-05 16:58N 37°30' W 123°12'612.2
2017-Nov-05 16:30N 37°33' W 123°06'612.7
2017-Nov-05 16:00N 37°37' W 122°59'612.7
2017-Nov-05 15:30N 37°40' W 122°53'612.4
2017-Nov-05 15:00N 37°43' W 122°46'5 9.8
2017-Nov-05 14:30N 37°45' W 122°40'510.1
2017-Nov-05 14:00N 37°47' W 122°34'612.4
2017-Nov-05 13:30N 37°50' W 122°27'510.8
2017-Nov-05 13:00N 37°47' W 122°22'4 7.0
2017-Nov-05 12:30N 37°44' W 122°20'0 0.2
2017-Nov-05 12:00N 37°44' W 122°20'0 0.0
2017-Nov-05 11:30N 37°44' W 122°20'0 0.0
2017-Nov-05 11:00N 37°44' W 122°20'0 0.1
2017-Nov-05 10:30N 37°44' W 122°20'0 0.2
2017-Nov-05 10:00N 37°44' W 122°20'0 0.3
2017-Nov-05 09:30N 37°44' W 122°20'0 0.1
2017-Nov-05 09:00N 37°44' W 122°20'0 0.0
2017-Nov-05 08:30N 37°44' W 122°20'0 0.0
2017-Nov-05 08:00N 37°44' W 122°20'0 0.0
2017-Nov-05 07:30N 37°44' W 122°20'0 0.0
2017-Nov-05 07:00N 37°44' W 122°20'0 0.0
2017-Nov-05 06:30N 37°44' W 122°20'0 0.0
2017-Nov-05 06:00N 37°44' W 122°20'0 0.0
2017-Nov-05 05:30N 37°44' W 122°20'0 0.1
2017-Nov-05 05:00N 37°44' W 122°20'0 0.0
2017-Nov-05 04:30N 37°44' W 122°20'0 0.0
2017-Nov-05 04:00N 37°44' W 122°20'0 0.2
2017-Nov-05 03:30N 37°44' W 122°20'0 0.4
2017-Nov-05 03:00N 37°44' W 122°20'0 0.1
2017-Nov-05 02:30N 37°44' W 122°20'0 0.0
2017-Nov-05 02:00N 37°44' W 122°20'0 0.1
2017-Nov-05 01:30N 37°44' W 122°20'0 0.0
2017-Nov-05 01:00N 37°44' W 122°20'0 0.0
2017-Nov-05 00:30N 37°44' W 122°20'0 0.0
2017-Nov-05 00:00N 37°44' W 122°20'0 0.0
2017-Nov-04 23:30N 37°44' W 122°20'0 0.0
2017-Nov-04 23:00N 37°44' W 122°20'0 0.0
2017-Nov-04 22:30N 37°44' W 122°20'0 0.0
2017-Nov-04 22:00N 37°44' W 122°20'0 0.3
2017-Nov-04 21:30N 37°44' W 122°20'1 2.6
2017-Nov-04 21:01N 37°45' W 122°21'3 6.7
2017-Nov-04 20:30N 37°48' W 122°22'510.2
2017-Nov-04 20:00N 37°53' W 122°25'3 5.2
2017-Nov-04 19:31N 37°55' W 122°25'3 5.2
2017-Nov-04 19:00N 37°54' W 122°22'1 1.8
2017-Nov-04 18:30N 37°55' W 122°22'0 0.0
2017-Nov-04 17:55N 37°55' W 122°22'0 0.0
2017-Nov-04 17:28N 37°55' W 122°22'0 0.0
2017-Nov-04 16:58N 37°55' W 122°22'0 0.0
2017-Nov-04 16:28N 37°55' W 122°22'0 0.0
2017-Nov-04 15:58N 37°55' W 122°22'0 0.0
2017-Nov-04 15:28N 37°55' W 122°22'0 0.0
2017-Nov-04 14:58N 37°55' W 122°22'0 0.0
2017-Nov-04 14:28N 37°55' W 122°22'0 0.0
2017-Nov-04 13:58N 37°55' W 122°22'0 0.0
2017-Nov-04 13:28N 37°55' W 122°22'0 0.0
2017-Nov-04 12:58N 37°55' W 122°22'0 0.0
2017-Nov-04 12:28N 37°55' W 122°22'0 0.0
2017-Nov-04 11:58N 37°55' W 122°22'0 0.0
2017-Nov-04 11:28N 37°55' W 122°22'0 0.0
2017-Nov-04 10:58N 37°55' W 122°22'0 0.0
2017-Nov-04 10:28N 37°55' W 122°22'0 0.0
2017-Nov-04 09:58N 37°55' W 122°22'0 0.0
2017-Nov-04 09:28N 37°55' W 122°22'0 0.0
2017-Nov-04 08:58N 37°55' W 122°22'0 0.0
2017-Nov-04 08:28N 37°55' W 122°22'0 0.0
2017-Nov-04 07:58N 37°55' W 122°22'0 0.0
2017-Nov-04 07:28N 37°55' W 122°22'0 0.0
2017-Nov-04 06:58N 37°55' W 122°22'0 0.0
2017-Nov-04 06:25N 37°55' W 122°22'0 0.0
2017-Nov-04 05:58N 37°55' W 122°22'0 0.0
2017-Nov-04 05:28N 37°55' W 122°22'0 0.0
2017-Nov-04 04:58N 37°55' W 122°22'0 0.0
2017-Nov-04 04:28N 37°55' W 122°22'0 0.0
2017-Nov-04 03:58N 37°55' W 122°22'0 0.0
2017-Nov-04 03:25N 37°55' W 122°22'0 0.0
2017-Nov-04 02:58N 37°55' W 122°22'0 0.0
2017-Nov-04 02:28N 37°55' W 122°22'0 0.0
2017-Nov-04 01:55N 37°55' W 122°22'0 0.0
2017-Nov-04 01:28N 37°55' W 122°22'0 0.0
2017-Nov-04 00:55N 37°55' W 122°22'0 0.0
2017-Nov-04 00:28N 37°55' W 122°22'0 0.0
2017-Nov-03 23:58N 37°55' W 122°22'0 0.0
2017-Nov-03 23:28N 37°55' W 122°22'0 0.0
2017-Nov-03 22:58N 37°55' W 122°22'0 0.0
2017-Nov-03 22:28N 37°55' W 122°22'0 0.0
2017-Nov-03 21:58N 37°55' W 122°22'0 0.0
2017-Nov-03 21:25N 37°55' W 122°22'0 0.0
2017-Nov-03 20:58N 37°55' W 122°22'0 0.0
2017-Nov-03 20:28N 37°55' W 122°22'0 0.0
2017-Nov-03 19:58N 37°55' W 122°22'0 0.0
2017-Nov-03 19:28N 37°55' W 122°22'0 0.0
2017-Nov-03 18:52N 37°55' W 122°22'0 0.0
2017-Nov-03 18:25N 37°55' W 122°22'0 0.0
2017-Nov-03 17:58N 37°55' W 122°22'0 0.0
2017-Nov-03 17:28N 37°55' W 122°22'0 0.0
2017-Nov-03 16:52N 37°55' W 122°22'0 0.0
2017-Nov-03 16:28N 37°55' W 122°22'0 0.0
2017-Nov-03 15:58N 37°55' W 122°22'0 0.0
2017-Nov-03 15:28N 37°55' W 122°22'0 0.0
2017-Nov-03 14:58N 37°55' W 122°22'0 0.0
2017-Nov-03 14:28N 37°55' W 122°22'0 0.0
2017-Nov-03 13:55N 37°55' W 122°22'0 0.0
2017-Nov-03 13:28N 37°55' W 122°22'0 0.0
2017-Nov-03 12:58N 37°55' W 122°22'0 0.0
2017-Nov-03 12:28N 37°55' W 122°22'0 0.0
2017-Nov-03 11:55N 37°55' W 122°22'0 0.0
2017-Nov-03 11:28N 37°55' W 122°22'0 0.0
2017-Nov-03 10:58N 37°55' W 122°22'0 0.0
2017-Nov-03 10:28N 37°55' W 122°22'0 0.0
2017-Nov-03 09:58N 37°55' W 122°22'0 0.0
2017-Nov-03 09:28N 37°55' W 122°22'0 0.0
2017-Nov-03 08:58N 37°55' W 122°22'0 0.0
2017-Nov-03 08:28N 37°55' W 122°22'0 0.0
2017-Nov-03 07:58N 37°55' W 122°22'0 0.0
2017-Nov-03 07:28N 37°55' W 122°22'0 0.0
2017-Nov-03 06:58N 37°55' W 122°22'0 0.0
2017-Nov-03 06:28N 37°55' W 122°22'0 0.0
2017-Nov-03 05:58N 37°55' W 122°22'0 0.0
2017-Nov-03 05:28N 37°55' W 122°22'0 0.0
2017-Nov-03 04:58N 37°55' W 122°22'0 0.0
2017-Nov-03 04:28N 37°55' W 122°22'0 0.0
2017-Nov-03 04:00N 37°55' W 122°22'0 0.7
2017-Nov-03 03:30N 37°55' W 122°22'1 1.3
2017-Nov-03 03:01N 37°54' W 122°22'2 4.4
2017-Nov-03 02:30N 37°55' W 122°25'2 4.7
2017-Nov-03 02:00N 37°52' W 122°25'510.1
2017-Nov-03 01:30N 37°48' W 122°22'1 2.5
2017-Nov-03 01:00N 37°47' W 122°21'0 0.2
2017-Nov-03 00:28N 37°47' W 122°21'0 0.0
2017-Nov-02 23:58N 37°47' W 122°21'0 0.0
2017-Nov-02 23:28N 37°47' W 122°21'0 0.0
2017-Nov-02 22:58N 37°47' W 122°21'0 0.0
2017-Nov-02 22:28N 37°47' W 122°21'0 0.0
2017-Nov-02 21:58N 37°47' W 122°21'0 0.0
2017-Nov-02 21:28N 37°47' W 122°21'0 0.0
2017-Nov-02 20:58N 37°47' W 122°21'0 0.0
2017-Nov-02 20:28N 37°47' W 122°21'0 0.1
2017-Nov-02 19:58N 37°47' W 122°21'0 0.0
2017-Nov-02 19:28N 37°47' W 122°21'0 0.2
2017-Nov-02 18:58N 37°47' W 122°21'0 0.3
2017-Nov-02 18:28N 37°47' W 122°21'0 0.1
2017-Nov-02 18:01N 37°47' W 122°21'0 0.1
2017-Nov-02 17:28N 37°47' W 122°21'0 0.0
2017-Nov-02 16:58N 37°47' W 122°21'0 0.0
2017-Nov-02 16:28N 37°47' W 122°21'0 0.0
2017-Nov-02 15:58N 37°47' W 122°21'0 0.0
2017-Nov-02 15:28N 37°47' W 122°21'0 0.0
2017-Nov-02 14:58N 37°47' W 122°21'0 0.0
2017-Nov-02 14:31N 37°47' W 122°21'0 0.1
2017-Nov-02 13:58N 37°47' W 122°21'0 0.0
2017-Nov-02 13:28N 37°47' W 122°21'0 0.2
2017-Nov-02 13:01N 37°47' W 122°21'0 0.4
2017-Nov-02 12:28N 37°47' W 122°21'0 0.0
2017-Nov-02 11:58N 37°47' W 122°21'0 0.0
2017-Nov-02 11:28N 37°47' W 122°21'0 0.0
2017-Nov-02 10:58N 37°47' W 122°21'0 0.0
2017-Nov-02 10:28N 37°47' W 122°21'0 0.0
2017-Nov-02 10:01N 37°47' W 122°21'0 0.0
2017-Nov-02 09:31N 37°47' W 122°21'0 0.0
2017-Nov-02 08:58N 37°47' W 122°21'0 0.1
2017-Nov-02 08:28N 37°47' W 122°21'0 0.1
2017-Nov-02 08:01N 37°47' W 122°21'0 0.1
2017-Nov-02 07:28N 37°47' W 122°21'0 0.1
2017-Nov-02 07:01N 37°47' W 122°21'0 0.3
2017-Nov-02 06:28N 37°47' W 122°21'0 0.2
2017-Nov-02 05:58N 37°47' W 122°21'0 0.1
2017-Nov-02 05:31N 37°47' W 122°21'0 0.0
2017-Nov-02 04:58N 37°47' W 122°21'0 0.0
2017-Nov-02 04:28N 37°47' W 122°21'0 0.0
2017-Nov-02 03:58N 37°47' W 122°21'0 0.0
2017-Nov-02 03:28N 37°47' W 122°21'0 0.0
2017-Nov-02 02:58N 37°47' W 122°21'0 0.0
2017-Nov-02 02:28N 37°47' W 122°21'0 0.0
2017-Nov-02 02:01N 37°47' W 122°21'0 0.1
2017-Nov-02 01:28N 37°47' W 122°21'0 0.0
2017-Nov-02 00:58N 37°47' W 122°21'0 0.3
2017-Nov-02 00:28N 37°47' W 122°21'0 0.2
2017-Nov-01 23:58N 37°47' W 122°21'0 0.0
2017-Nov-01 23:31N 37°47' W 122°21'0 0.1
2017-Nov-01 22:58N 37°47' W 122°21'0 0.0
2017-Nov-01 22:28N 37°47' W 122°21'0 0.1
2017-Nov-01 21:58N 37°47' W 122°21'0 0.0
2017-Nov-01 21:28N 37°47' W 122°21'0 0.0
2017-Nov-01 20:58N 37°47' W 122°21'0 0.0
2017-Nov-01 20:28N 37°47' W 122°21'0 0.1
2017-Nov-01 19:58N 37°47' W 122°21'0 0.0
2017-Nov-01 19:28N 37°47' W 122°21'0 0.2
2017-Nov-01 19:00N 37°47' W 122°21'2 3.7
2017-Nov-01 18:30N 37°48' W 122°23'7 0.4
2017-Nov-01 01:57N 37°55' W 122°22'0 0.0
2017-Nov-01 01:27N 37°55' W 122°22'0 0.0
2017-Nov-01 01:00N 37°55' W 122°22'0 0.0
2017-Nov-01 00:27N 37°55' W 122°22'0 0.0
2017-Oct-31 23:57N 37°55' W 122°22'0 0.0
2017-Oct-31 23:30N 37°55' W 122°22'0 0.0
2017-Oct-31 22:57N 37°55' W 122°22'0 0.0
2017-Oct-31 22:30N 37°55' W 122°22'0 0.0
2017-Oct-31 22:00N 37°55' W 122°22'0 0.0
2017-Oct-31 21:30N 37°55' W 122°22'0 0.0
2017-Oct-31 21:00N 37°55' W 122°22'0 0.0
2017-Oct-31 20:27N 37°55' W 122°22'0 0.0
2017-Oct-31 19:57N 37°55' W 122°22'0 0.0
2017-Oct-31 19:30N 37°55' W 122°22'0 0.0
2017-Oct-31 19:00N 37°55' W 122°22'0 0.0
2017-Oct-31 18:30N 37°55' W 122°22'0 0.0
2017-Oct-31 18:00N 37°55' W 122°22'0 0.0
2017-Oct-31 17:30N 37°55' W 122°22'0 0.0
2017-Oct-31 17:00N 37°55' W 122°22'0 0.0
2017-Oct-31 16:30N 37°55' W 122°22'0 0.0
2017-Oct-31 16:00N 37°55' W 122°22'0 0.0
2017-Oct-31 15:30N 37°55' W 122°22'0 0.0
2017-Oct-31 15:00N 37°55' W 122°22'0 0.0
2017-Oct-31 14:30N 37°55' W 122°22'0 0.0
2017-Oct-31 14:00N 37°55' W 122°22'0 0.0
2017-Oct-31 13:30N 37°55' W 122°22'0 0.0
2017-Oct-31 13:00N 37°55' W 122°22'0 0.0
2017-Oct-31 12:30N 37°55' W 122°22'0 0.0
2017-Oct-31 11:57N 37°55' W 122°22'0 0.0
2017-Oct-31 11:30N 37°55' W 122°22'0 0.0
2017-Oct-31 11:00N 37°55' W 122°22'0 0.0
2017-Oct-31 10:30N 37°55' W 122°22'0 0.0
2017-Oct-31 10:00N 37°55' W 122°22'0 0.0
2017-Oct-31 09:30N 37°55' W 122°22'0 0.0
2017-Oct-31 09:00N 37°55' W 122°22'0 0.0
2017-Oct-31 08:30N 37°55' W 122°22'0 0.0
2017-Oct-31 08:00N 37°55' W 122°22'0 0.0
2017-Oct-31 07:30N 37°55' W 122°22'0 0.0
2017-Oct-31 07:00N 37°55' W 122°22'0 0.0
2017-Oct-31 06:30N 37°55' W 122°22'0 0.0
2017-Oct-31 06:00N 37°55' W 122°22'0 0.0
2017-Oct-31 05:30N 37°55' W 122°22'0 0.0
2017-Oct-31 05:00N 37°55' W 122°22'0 0.0
2017-Oct-31 04:27N 37°55' W 122°22'0 0.0
2017-Oct-31 04:00N 37°55' W 122°22'0 0.0
2017-Oct-31 03:30N 37°55' W 122°22'0 0.0
2017-Oct-31 03:00N 37°55' W 122°22'0 0.0
2017-Oct-31 02:30N 37°55' W 122°22'0 0.0
2017-Oct-31 02:00N 37°55' W 122°22'0 0.0
2017-Oct-31 01:30N 37°55' W 122°22'0 0.0
2017-Oct-31 00:57N 37°55' W 122°22'0 0.0
2017-Oct-31 00:30N 37°55' W 122°22'0 0.0
2017-Oct-31 00:00N 37°55' W 122°22'0 0.0
2017-Oct-30 23:30N 37°55' W 122°22'0 0.0
2017-Oct-30 23:00N 37°55' W 122°22'0 0.0
2017-Oct-30 22:30N 37°55' W 122°22'0 0.0
2017-Oct-30 22:00N 37°55' W 122°22'0 0.0
2017-Oct-30 21:30N 37°55' W 122°22'0 0.0
2017-Oct-30 20:57N 37°55' W 122°22'0 0.0
2017-Oct-30 20:30N 37°55' W 122°22'0 0.0
2017-Oct-30 20:00N 37°55' W 122°22'0 0.0
2017-Oct-30 19:30N 37°55' W 122°22'0 0.0
2017-Oct-30 19:00N 37°55' W 122°22'0 0.0
2017-Oct-30 18:30N 37°55' W 122°22'0 0.0
2017-Oct-30 18:00N 37°55' W 122°22'0 0.0
2017-Oct-30 17:30N 37°55' W 122°22'0 0.0
2017-Oct-30 17:00N 37°55' W 122°22'0 0.0
2017-Oct-30 16:30N 37°55' W 122°22'0 0.0
2017-Oct-30 16:00N 37°55' W 122°22'0 0.0
2017-Oct-30 15:30N 37°55' W 122°22'0 0.0
2017-Oct-30 15:00N 37°55' W 122°22'0 0.0
2017-Oct-30 14:00N 37°55' W 122°22'0 0.0
2017-Oct-30 13:30N 37°55' W 122°22'0 0.0
2017-Oct-30 13:00N 37°55' W 122°22'0 0.0
2017-Oct-30 12:30N 37°55' W 122°22'0 0.9
2017-Oct-30 12:00N 37°55' W 122°22'1 1.7
2017-Oct-30 11:30N 37°54' W 122°23'2 4.2
2017-Oct-30 11:00N 37°55' W 122°25'510.3
2017-Oct-30 10:30N 37°50' W 122°24'4 8.9
2017-Oct-30 10:01N 37°46' W 122°21'0 0.4
2017-Oct-30 09:29N 37°46' W 122°21'0 0.0
2017-Oct-30 08:59N 37°46' W 122°21'0 0.0
2017-Oct-30 08:29N 37°46' W 122°21'0 0.0
2017-Oct-30 07:59N 37°46' W 122°21'0 0.0
2017-Oct-30 07:29N 37°46' W 122°21'0 0.0
2017-Oct-30 06:59N 37°46' W 122°21'0 0.0
2017-Oct-30 06:29N 37°46' W 122°21'0 0.0
2017-Oct-30 05:59N 37°46' W 122°21'0 0.1
2017-Oct-30 05:29N 37°46' W 122°21'0 0.1
2017-Oct-30 04:59N 37°46' W 122°21'0 0.3
2017-Oct-30 04:30N 37°46' W 122°21'0 0.3
2017-Oct-30 04:00N 37°45' W 122°21'0 0.0
2017-Oct-30 03:31N 37°45' W 122°21'0 0.0
2017-Oct-30 03:00N 37°45' W 122°21'0 0.0
2017-Oct-30 02:30N 37°45' W 122°21'0 0.1
2017-Oct-30 02:01N 37°45' W 122°21'0 0.1
2017-Oct-30 01:30N 37°45' W 122°21'0 0.0
2017-Oct-30 01:00N 37°45' W 122°21'0 0.0
2017-Oct-30 00:30N 37°45' W 122°21'0 0.1
2017-Oct-30 00:00N 37°45' W 122°21'0 0.0
2017-Oct-29 23:30N 37°45' W 122°21'0 0.0
2017-Oct-29 23:00N 37°46' W 122°21'0 0.2
2017-Oct-29 22:30N 37°46' W 122°21'0 0.2
2017-Oct-29 22:00N 37°46' W 122°21'0 0.0
2017-Oct-29 21:30N 37°46' W 122°21'0 0.0
2017-Oct-29 21:00N 37°46' W 122°21'0 0.0
2017-Oct-29 20:30N 37°46' W 122°21'0 0.0
2017-Oct-29 20:00N 37°46' W 122°21'0 0.0
2017-Oct-29 19:30N 37°46' W 122°21'0 0.0
2017-Oct-29 19:00N 37°46' W 122°21'0 0.0
2017-Oct-29 18:30N 37°46' W 122°21'0 0.0
2017-Oct-29 18:00N 37°46' W 122°21'0 0.0
2017-Oct-29 17:31N 37°46' W 122°21'0 0.2
2017-Oct-29 17:00N 37°46' W 122°21'0 0.3
2017-Oct-29 16:30N 37°45' W 122°21'0 0.1
2017-Oct-29 16:00N 37°45' W 122°21'0 0.0
2017-Oct-29 15:30N 37°45' W 122°21'0 0.1
2017-Oct-29 15:00N 37°45' W 122°21'0 0.0
2017-Oct-29 14:30N 37°45' W 122°21'0 0.0
2017-Oct-29 14:00N 37°45' W 122°21'0 0.0
2017-Oct-29 13:30N 37°45' W 122°21'0 0.0
2017-Oct-29 13:00N 37°45' W 122°21'0 0.1
2017-Oct-29 12:30N 37°45' W 122°21'0 0.0
2017-Oct-29 12:00N 37°45' W 122°21'0 0.0
2017-Oct-29 11:30N 37°45' W 122°21'0 0.1
2017-Oct-29 11:00N 37°45' W 122°21'0 0.0
2017-Oct-29 10:30N 37°46' W 122°21'0 0.1
2017-Oct-29 10:00N 37°46' W 122°21'0 0.2
2017-Oct-29 09:30N 37°46' W 122°21'0 0.2
2017-Oct-29 09:00N 37°46' W 122°21'0 0.1
2017-Oct-29 08:30N 37°46' W 122°21'0 0.1
2017-Oct-29 08:00N 37°46' W 122°21'0 0.0
2017-Oct-29 07:30N 37°46' W 122°21'0 0.0
2017-Oct-29 07:01N 37°46' W 122°21'0 0.0
2017-Oct-29 06:30N 37°46' W 122°21'0 0.0
2017-Oct-29 06:00N 37°46' W 122°21'0 0.0
2017-Oct-29 05:30N 37°46' W 122°21'0 0.0
2017-Oct-29 05:00N 37°46' W 122°21'0 0.0
2017-Oct-29 04:30N 37°46' W 122°21'0 0.0
2017-Oct-29 04:00N 37°46' W 122°21'0 0.0
2017-Oct-28 19:00N 37°46' W 122°21'0 0.1
2017-Oct-28 18:30N 37°46' W 122°21'0 0.1
2017-Oct-28 18:00N 37°46' W 122°21'0 0.0
2017-Oct-28 17:30N 37°46' W 122°21'0 0.4
2017-Oct-28 17:00N 37°46' W 122°21'0 0.1
2017-Oct-28 16:30N 37°45' W 122°21'0 0.0
2017-Oct-28 16:00N 37°45' W 122°21'0 0.0
2017-Oct-28 15:30N 37°45' W 122°21'0 0.0
2017-Oct-28 15:00N 37°45' W 122°21'0 0.1
2017-Oct-28 14:30N 37°45' W 122°21'0 0.0
2017-Oct-28 14:00N 37°45' W 122°21'0 0.1
2017-Oct-28 13:30N 37°45' W 122°21'0 0.0
2017-Oct-28 13:00N 37°45' W 122°21'0 0.1
2017-Oct-28 12:30N 37°45' W 122°21'0 0.0
2017-Oct-28 12:00N 37°45' W 122°21'0 0.0
2017-Oct-28 11:30N 37°45' W 122°21'0 0.0
2017-Oct-28 11:00N 37°45' W 122°21'0 0.0
2017-Oct-28 10:30N 37°45' W 122°21'0 0.0
2017-Oct-28 10:01N 37°45' W 122°21'0 0.0
2017-Oct-28 09:30N 37°45' W 122°21'0 0.1
2017-Oct-28 09:00N 37°45' W 122°21'0 0.2
2017-Oct-28 08:31N 37°46' W 122°21'0 0.2
2017-Oct-28 08:00N 37°46' W 122°21'0 0.1
2017-Oct-28 07:30N 37°46' W 122°21'0 0.0
2017-Oct-28 07:00N 37°46' W 122°21'0 0.0
2017-Oct-28 06:30N 37°46' W 122°21'0 0.0
2017-Oct-28 06:00N 37°46' W 122°21'0 0.1
2017-Oct-28 05:30N 37°46' W 122°21'0 0.1
2017-Oct-28 05:00N 37°46' W 122°21'0 0.0
2017-Oct-28 04:30N 37°46' W 122°21'0 0.0
2017-Oct-28 04:00N 37°46' W 122°21'0 0.0
2017-Oct-28 03:30N 37°46' W 122°21'0 0.0
2017-Oct-28 03:00N 37°46' W 122°21'0 0.0
2017-Oct-28 02:31N 37°46' W 122°21'0 0.3
2017-Oct-28 02:00N 37°46' W 122°21'0 0.3
2017-Oct-28 01:30N 37°45' W 122°21'0 0.0
2017-Oct-28 01:00N 37°45' W 122°21'0 0.1
2017-Oct-28 00:30N 37°45' W 122°21'0 0.0
2017-Oct-28 00:00N 37°45' W 122°21'0 0.0
2017-Oct-27 23:31N 37°45' W 122°21'0 0.0
2017-Oct-27 23:00N 37°45' W 122°21'0 0.0
2017-Oct-27 22:30N 37°45' W 122°21'0 0.0
2017-Oct-27 22:00N 37°45' W 122°21'0 0.1
2017-Oct-27 21:30N 37°45' W 122°21'0 0.0
2017-Oct-27 21:01N 37°45' W 122°21'0 0.0
2017-Oct-27 20:30N 37°45' W 122°21'0 0.2
2017-Oct-27 20:00N 37°46' W 122°21'0 0.2
2017-Oct-27 19:30N 37°46' W 122°21'0 0.1
2017-Oct-27 19:00N 37°46' W 122°21'0 0.0
2017-Oct-27 18:30N 37°46' W 122°21'0 0.0
2017-Oct-27 18:00N 37°46' W 122°21'0 0.0
2017-Oct-27 17:30N 37°46' W 122°21'0 0.1
2017-Oct-27 17:00N 37°46' W 122°21'0 0.0
2017-Oct-27 16:30N 37°46' W 122°21'0 0.1
2017-Oct-27 16:00N 37°46' W 122°21'0 0.2
2017-Oct-27 15:30N 37°46' W 122°21'0 0.2
2017-Oct-27 15:00N 37°45' W 122°21'0 0.1
2017-Oct-27 14:30N 37°45' W 122°21'0 0.0
2017-Oct-27 14:00N 37°45' W 122°21'0 0.1
2017-Oct-27 13:30N 37°45' W 122°21'0 0.0
2017-Oct-27 13:00N 37°45' W 122°21'0 0.0
2017-Oct-27 12:30N 37°45' W 122°21'0 0.0
2017-Oct-27 12:00N 37°45' W 122°21'0 0.1
2017-Oct-27 11:30N 37°45' W 122°21'0 0.0
2017-Oct-27 11:00N 37°45' W 122°21'0 0.0
2017-Oct-27 10:30N 37°45' W 122°21'0 0.0
2017-Oct-27 10:00N 37°45' W 122°21'0 0.0
2017-Oct-27 09:30N 37°45' W 122°21'0 0.0
2017-Oct-27 09:00N 37°45' W 122°21'0 0.0
2017-Oct-27 08:30N 37°45' W 122°21'0 0.2
2017-Oct-27 08:00N 37°45' W 122°21'0 0.4
2017-Oct-27 07:30N 37°46' W 122°21'0 0.1
2017-Oct-27 07:00N 37°46' W 122°21'0 0.0
2017-Oct-27 06:30N 37°46' W 122°21'0 0.0
2017-Oct-27 06:00N 37°46' W 122°21'0 0.0
2017-Oct-27 05:30N 37°46' W 122°21'0 0.0
2017-Oct-27 05:00N 37°46' W 122°21'0 0.0
2017-Oct-27 04:30N 37°46' W 122°21'0 0.0
2017-Oct-27 04:00N 37°46' W 122°21'0 0.0
2017-Oct-27 03:30N 37°46' W 122°21'0 0.0
2017-Oct-27 03:01N 37°46' W 122°21'0 0.0
2017-Oct-27 02:30N 37°46' W 122°21'0 0.0
2017-Oct-27 02:00N 37°46' W 122°21'0 0.0
2017-Oct-27 01:30N 37°46' W 122°21'0 0.1
2017-Oct-27 01:00N 37°46' W 122°21'0 0.4
2017-Oct-27 00:30N 37°45' W 122°21'0 0.1
2017-Oct-27 00:00N 37°45' W 122°21'0 0.0
2017-Oct-26 23:30N 37°45' W 122°21'0 0.0
2017-Oct-26 23:00N 37°45' W 122°21'0 0.0
2017-Oct-26 22:30N 37°45' W 122°21'0 0.1
2017-Oct-26 22:00N 37°45' W 122°21'0 0.0
2017-Oct-26 21:30N 37°45' W 122°21'0 0.0
2017-Oct-26 21:00N 37°45' W 122°21'0 0.0
2017-Oct-26 20:30N 37°45' W 122°21'0 0.0
2017-Oct-26 20:01N 37°45' W 122°21'0 0.0
2017-Oct-26 19:30N 37°45' W 122°21'0 0.1
2017-Oct-26 19:00N 37°46' W 122°21'0 0.2
2017-Oct-26 18:30N 37°46' W 122°21'0 0.1
2017-Oct-26 18:01N 37°46' W 122°21'0 0.0
2017-Oct-26 17:30N 37°46' W 122°21'0 0.1
2017-Oct-26 17:00N 37°46' W 122°21'  
Track history (hours):
 
Tides and Currents Weather Stations Pressure Air Temp Water Temp Dewpoint Dewpoint Depression Visibility Wind Speed Wind Dir Waves Ship Positions

Apollo

Last reported at 2017-Nov-05 16:58 UTC. Time now 2017-Nov-24 21:58 UTC.
Position N 37°30' W 123°12'.
Warning: this ship's position is 19 days out of date.

Length 225 m; draft 11.9 m.

Type: Cargo ship. MMSI: 538002510.

Date/timePositionNaut miles runAvg speedWind from/ knotsBaromVisibWave heightAir tempDewpointWater temp
2017-Nov-05 16:58N 37°30' W 123°12'612.2
2017-Nov-05 16:30N 37°33' W 123°06'612.7
2017-Nov-05 16:00N 37°37' W 122°59'612.7
2017-Nov-05 15:30N 37°40' W 122°53'612.4
2017-Nov-05 15:00N 37°43' W 122°46'5 9.8
2017-Nov-05 14:30N 37°45' W 122°40'510.1
2017-Nov-05 14:00N 37°47' W 122°34'612.4
2017-Nov-05 13:30N 37°50' W 122°27'510.8
2017-Nov-05 13:00N 37°47' W 122°22'4 7.0
2017-Nov-05 12:30N 37°44' W 122°20'0 0.2
2017-Nov-05 12:00N 37°44' W 122°20'0 0.0
2017-Nov-05 11:30N 37°44' W 122°20'0 0.0
2017-Nov-05 11:00N 37°44' W 122°20'0 0.1
2017-Nov-05 10:30N 37°44' W 122°20'0 0.2
2017-Nov-05 10:00N 37°44' W 122°20'0 0.3
2017-Nov-05 09:30N 37°44' W 122°20'0 0.1
2017-Nov-05 09:00N 37°44' W 122°20'0 0.0
2017-Nov-05 08:30N 37°44' W 122°20'0 0.0
2017-Nov-05 08:00N 37°44' W 122°20'0 0.0
2017-Nov-05 07:30N 37°44' W 122°20'0 0.0
2017-Nov-05 07:00N 37°44' W 122°20'0 0.0
2017-Nov-05 06:30N 37°44' W 122°20'0 0.0
2017-Nov-05 06:00N 37°44' W 122°20'0 0.0
2017-Nov-05 05:30N 37°44' W 122°20'0 0.1
2017-Nov-05 05:00N 37°44' W 122°20'0 0.0
2017-Nov-05 04:30N 37°44' W 122°20'0 0.0
2017-Nov-05 04:00N 37°44' W 122°20'0 0.2
2017-Nov-05 03:30N 37°44' W 122°20'0 0.4
2017-Nov-05 03:00N 37°44' W 122°20'0 0.1
2017-Nov-05 02:30N 37°44' W 122°20'0 0.0
2017-Nov-05 02:00N 37°44' W 122°20'0 0.1
2017-Nov-05 01:30N 37°44' W 122°20'0 0.0
2017-Nov-05 01:00N 37°44' W 122°20'0 0.0
2017-Nov-05 00:30N 37°44' W 122°20'0 0.0
2017-Nov-05 00:00N 37°44' W 122°20'0 0.0
2017-Nov-04 23:30N 37°44' W 122°20'0 0.0
2017-Nov-04 23:00N 37°44' W 122°20'0 0.0
2017-Nov-04 22:30N 37°44' W 122°20'0 0.0
2017-Nov-04 22:00N 37°44' W 122°20'0 0.3
2017-Nov-04 21:30N 37°44' W 122°20'1 2.6
2017-Nov-04 21:01N 37°45' W 122°21'3 6.7
2017-Nov-04 20:30N 37°48' W 122°22'510.2
2017-Nov-04 20:00N 37°53' W 122°25'3 5.2
2017-Nov-04 19:31N 37°55' W 122°25'3 5.2
2017-Nov-04 19:00N 37°54' W 122°22'1 1.8
2017-Nov-04 18:30N 37°55' W 122°22'0 0.0
2017-Nov-04 17:55N 37°55' W 122°22'0 0.0
2017-Nov-04 17:28N 37°55' W 122°22'0 0.0
2017-Nov-04 16:58N 37°55' W 122°22'0 0.0
2017-Nov-04 16:28N 37°55' W 122°22'0 0.0
2017-Nov-04 15:58N 37°55' W 122°22'0 0.0
2017-Nov-04 15:28N 37°55' W 122°22'0 0.0
2017-Nov-04 14:58N 37°55' W 122°22'0 0.0
2017-Nov-04 14:28N 37°55' W 122°22'0 0.0
2017-Nov-04 13:58N 37°55' W 122°22'0 0.0
2017-Nov-04 13:28N 37°55' W 122°22'0 0.0
2017-Nov-04 12:58N 37°55' W 122°22'0 0.0
2017-Nov-04 12:28N 37°55' W 122°22'0 0.0
2017-Nov-04 11:58N 37°55' W 122°22'0 0.0
2017-Nov-04 11:28N 37°55' W 122°22'0 0.0
2017-Nov-04 10:58N 37°55' W 122°22'0 0.0
2017-Nov-04 10:28N 37°55' W 122°22'0 0.0
2017-Nov-04 09:58N 37°55' W 122°22'0 0.0
2017-Nov-04 09:28N 37°55' W 122°22'0 0.0
2017-Nov-04 08:58N 37°55' W 122°22'0 0.0
2017-Nov-04 08:28N 37°55' W 122°22'0 0.0
2017-Nov-04 07:58N 37°55' W 122°22'0 0.0
2017-Nov-04 07:28N 37°55' W 122°22'0 0.0
2017-Nov-04 06:58N 37°55' W 122°22'0 0.0
2017-Nov-04 06:25N 37°55' W 122°22'0 0.0
2017-Nov-04 05:58N 37°55' W 122°22'0 0.0
2017-Nov-04 05:28N 37°55' W 122°22'0 0.0
2017-Nov-04 04:58N 37°55' W 122°22'0 0.0
2017-Nov-04 04:28N 37°55' W 122°22'0 0.0
2017-Nov-04 03:58N 37°55' W 122°22'0 0.0
2017-Nov-04 03:25N 37°55' W 122°22'0 0.0
2017-Nov-04 02:58N 37°55' W 122°22'0 0.0
2017-Nov-04 02:28N 37°55' W 122°22'0 0.0
2017-Nov-04 01:55N 37°55' W 122°22'0 0.0
2017-Nov-04 01:28N 37°55' W 122°22'0 0.0
2017-Nov-04 00:55N 37°55' W 122°22'0 0.0
2017-Nov-04 00:28N 37°55' W 122°22'0 0.0
2017-Nov-03 23:58N 37°55' W 122°22'0 0.0
2017-Nov-03 23:28N 37°55' W 122°22'0 0.0
2017-Nov-03 22:58N 37°55' W 122°22'0 0.0
2017-Nov-03 22:28N 37°55' W 122°22'0 0.0
2017-Nov-03 21:58N 37°55' W 122°22'0 0.0
2017-Nov-03 21:25N 37°55' W 122°22'0 0.0
2017-Nov-03 20:58N 37°55' W 122°22'0 0.0
2017-Nov-03 20:28N 37°55' W 122°22'0 0.0
2017-Nov-03 19:58N 37°55' W 122°22'0 0.0
2017-Nov-03 19:28N 37°55' W 122°22'0 0.0
2017-Nov-03 18:52N 37°55' W 122°22'0 0.0
2017-Nov-03 18:25N 37°55' W 122°22'0 0.0
2017-Nov-03 17:58N 37°55' W 122°22'0 0.0
2017-Nov-03 17:28N 37°55' W 122°22'0 0.0
2017-Nov-03 16:52N 37°55' W 122°22'0 0.0
2017-Nov-03 16:28N 37°55' W 122°22'0 0.0
2017-Nov-03 15:58N 37°55' W 122°22'0 0.0
2017-Nov-03 15:28N 37°55' W 122°22'0 0.0
2017-Nov-03 14:58N 37°55' W 122°22'0 0.0
2017-Nov-03 14:28N 37°55' W 122°22'0 0.0
2017-Nov-03 13:55N 37°55' W 122°22'0 0.0
2017-Nov-03 13:28N 37°55' W 122°22'0 0.0
2017-Nov-03 12:58N 37°55' W 122°22'0 0.0
2017-Nov-03 12:28N 37°55' W 122°22'0 0.0
2017-Nov-03 11:55N 37°55' W 122°22'0 0.0
2017-Nov-03 11:28N 37°55' W 122°22'0 0.0
2017-Nov-03 10:58N 37°55' W 122°22'0 0.0
2017-Nov-03 10:28N 37°55' W 122°22'0 0.0
2017-Nov-03 09:58N 37°55' W 122°22'0 0.0
2017-Nov-03 09:28N 37°55' W 122°22'0 0.0
2017-Nov-03 08:58N 37°55' W 122°22'0 0.0
2017-Nov-03 08:28N 37°55' W 122°22'0 0.0
2017-Nov-03 07:58N 37°55' W 122°22'0 0.0
2017-Nov-03 07:28N 37°55' W 122°22'0 0.0
2017-Nov-03 06:58N 37°55' W 122°22'0 0.0
2017-Nov-03 06:28N 37°55' W 122°22'0 0.0
2017-Nov-03 05:58N 37°55' W 122°22'0 0.0
2017-Nov-03 05:28N 37°55' W 122°22'0 0.0
2017-Nov-03 04:58N 37°55' W 122°22'0 0.0
2017-Nov-03 04:28N 37°55' W 122°22'0 0.0
2017-Nov-03 04:00N 37°55' W 122°22'0 0.7
2017-Nov-03 03:30N 37°55' W 122°22'1 1.3
2017-Nov-03 03:01N 37°54' W 122°22'2 4.4
2017-Nov-03 02:30N 37°55' W 122°25'2 4.7
2017-Nov-03 02:00N 37°52' W 122°25'510.1
2017-Nov-03 01:30N 37°48' W 122°22'1 2.5
2017-Nov-03 01:00N 37°47' W 122°21'0 0.2
2017-Nov-03 00:28N 37°47' W 122°21'0 0.0
2017-Nov-02 23:58N 37°47' W 122°21'0 0.0
2017-Nov-02 23:28N 37°47' W 122°21'0 0.0
2017-Nov-02 22:58N 37°47' W 122°21'0 0.0
2017-Nov-02 22:28N 37°47' W 122°21'0 0.0
2017-Nov-02 21:58N 37°47' W 122°21'0 0.0
2017-Nov-02 21:28N 37°47' W 122°21'0 0.0
2017-Nov-02 20:58N 37°47' W 122°21'0 0.0
2017-Nov-02 20:28N 37°47' W 122°21'0 0.1
2017-Nov-02 19:58N 37°47' W 122°21'0 0.0
2017-Nov-02 19:28N 37°47' W 122°21'0 0.2
2017-Nov-02 18:58N 37°47' W 122°21'0 0.3
2017-Nov-02 18:28N 37°47' W 122°21'0 0.1
2017-Nov-02 18:01N 37°47' W 122°21'0 0.1
2017-Nov-02 17:28N 37°47' W 122°21'0 0.0
2017-Nov-02 16:58N 37°47' W 122°21'0 0.0
2017-Nov-02 16:28N 37°47' W 122°21'0 0.0
2017-Nov-02 15:58N 37°47' W 122°21'0 0.0
2017-Nov-02 15:28N 37°47' W 122°21'0 0.0
2017-Nov-02 14:58N 37°47' W 122°21'0 0.0
2017-Nov-02 14:31N 37°47' W 122°21'0 0.1
2017-Nov-02 13:58N 37°47' W 122°21'0 0.0
2017-Nov-02 13:28N 37°47' W 122°21'0 0.2
2017-Nov-02 13:01N 37°47' W 122°21'0 0.4
2017-Nov-02 12:28N 37°47' W 122°21'0 0.0
2017-Nov-02 11:58N 37°47' W 122°21'0 0.0
2017-Nov-02 11:28N 37°47' W 122°21'0 0.0
2017-Nov-02 10:58N 37°47' W 122°21'0 0.0
2017-Nov-02 10:28N 37°47' W 122°21'0 0.0
2017-Nov-02 10:01N 37°47' W 122°21'0 0.0
2017-Nov-02 09:31N 37°47' W 122°21'0 0.0
2017-Nov-02 08:58N 37°47' W 122°21'0 0.1
2017-Nov-02 08:28N 37°47' W 122°21'0 0.1
2017-Nov-02 08:01N 37°47' W 122°21'0 0.1
2017-Nov-02 07:28N 37°47' W 122°21'0 0.1
2017-Nov-02 07:01N 37°47' W 122°21'0 0.3
2017-Nov-02 06:28N 37°47' W 122°21'0 0.2
2017-Nov-02 05:58N 37°47' W 122°21'0 0.1
2017-Nov-02 05:31N 37°47' W 122°21'0 0.0
2017-Nov-02 04:58N 37°47' W 122°21'0 0.0
2017-Nov-02 04:28N 37°47' W 122°21'0 0.0
2017-Nov-02 03:58N 37°47' W 122°21'0 0.0
2017-Nov-02 03:28N 37°47' W 122°21'0 0.0
2017-Nov-02 02:58N 37°47' W 122°21'0 0.0
2017-Nov-02 02:28N 37°47' W 122°21'0 0.0
2017-Nov-02 02:01N 37°47' W 122°21'0 0.1
2017-Nov-02 01:28N 37°47' W 122°21'0 0.0
2017-Nov-02 00:58N 37°47' W 122°21'0 0.3
2017-Nov-02 00:28N 37°47' W 122°21'0 0.2
2017-Nov-01 23:58N 37°47' W 122°21'0 0.0
2017-Nov-01 23:31N 37°47' W 122°21'0 0.1
2017-Nov-01 22:58N 37°47' W 122°21'0 0.0
2017-Nov-01 22:28N 37°47' W 122°21'0 0.1
2017-Nov-01 21:58N 37°47' W 122°21'0 0.0
2017-Nov-01 21:28N 37°47' W 122°21'0 0.0
2017-Nov-01 20:58N 37°47' W 122°21'0 0.0
2017-Nov-01 20:28N 37°47' W 122°21'0 0.1
2017-Nov-01 19:58N 37°47' W 122°21'0 0.0
2017-Nov-01 19:28N 37°47' W 122°21'0 0.2
2017-Nov-01 19:00N 37°47' W 122°21'2 3.7
2017-Nov-01 18:30N 37°48' W 122°23'7 0.4
2017-Nov-01 01:57N 37°55' W 122°22'0 0.0
2017-Nov-01 01:27N 37°55' W 122°22'0 0.0
2017-Nov-01 01:00N 37°55' W 122°22'0 0.0
2017-Nov-01 00:27N 37°55' W 122°22'0 0.0
2017-Oct-31 23:57N 37°55' W 122°22'0 0.0
2017-Oct-31 23:30N 37°55' W 122°22'0 0.0
2017-Oct-31 22:57N 37°55' W 122°22'0 0.0
2017-Oct-31 22:30N 37°55' W 122°22'0 0.0
2017-Oct-31 22:00N 37°55' W 122°22'0 0.0
2017-Oct-31 21:30N 37°55' W 122°22'0 0.0
2017-Oct-31 21:00N 37°55' W 122°22'0 0.0
2017-Oct-31 20:27N 37°55' W 122°22'0 0.0
2017-Oct-31 19:57N 37°55' W 122°22'0 0.0
2017-Oct-31 19:30N 37°55' W 122°22'0 0.0
2017-Oct-31 19:00N 37°55' W 122°22'0 0.0
2017-Oct-31 18:30N 37°55' W 122°22'0 0.0
2017-Oct-31 18:00N 37°55' W 122°22'0 0.0
2017-Oct-31 17:30N 37°55' W 122°22'0 0.0
2017-Oct-31 17:00N 37°55' W 122°22'0 0.0
2017-Oct-31 16:30N 37°55' W 122°22'0 0.0
2017-Oct-31 16:00N 37°55' W 122°22'0 0.0
2017-Oct-31 15:30N 37°55' W 122°22'0 0.0
2017-Oct-31 15:00N 37°55' W 122°22'0 0.0
2017-Oct-31 14:30N 37°55' W 122°22'0 0.0
2017-Oct-31 14:00N 37°55' W 122°22'0 0.0
2017-Oct-31 13:30N 37°55' W 122°22'0 0.0
2017-Oct-31 13:00N 37°55' W 122°22'0 0.0
2017-Oct-31 12:30N 37°55' W 122°22'0 0.0
2017-Oct-31 11:57N 37°55' W 122°22'0 0.0
2017-Oct-31 11:30N 37°55' W 122°22'0 0.0
2017-Oct-31 11:00N 37°55' W 122°22'0 0.0
2017-Oct-31 10:30N 37°55' W 122°22'0 0.0
2017-Oct-31 10:00N 37°55' W 122°22'0 0.0
2017-Oct-31 09:30N 37°55' W 122°22'0 0.0
2017-Oct-31 09:00N 37°55' W 122°22'0 0.0
2017-Oct-31 08:30N 37°55' W 122°22'0 0.0
2017-Oct-31 08:00N 37°55' W 122°22'0 0.0
2017-Oct-31 07:30N 37°55' W 122°22'0 0.0
2017-Oct-31 07:00N 37°55' W 122°22'0 0.0
2017-Oct-31 06:30N 37°55' W 122°22'0 0.0
2017-Oct-31 06:00N 37°55' W 122°22'0 0.0
2017-Oct-31 05:30N 37°55' W 122°22'0 0.0
2017-Oct-31 05:00N 37°55' W 122°22'0 0.0
2017-Oct-31 04:27N 37°55' W 122°22'0 0.0
2017-Oct-31 04:00N 37°55' W 122°22'0 0.0
2017-Oct-31 03:30N 37°55' W 122°22'0 0.0
2017-Oct-31 03:00N 37°55' W 122°22'0 0.0
2017-Oct-31 02:30N 37°55' W 122°22'0 0.0
2017-Oct-31 02:00N 37°55' W 122°22'0 0.0
2017-Oct-31 01:30N 37°55' W 122°22'0 0.0
2017-Oct-31 00:57N 37°55' W 122°22'0 0.0
2017-Oct-31 00:30N 37°55' W 122°22'0 0.0
2017-Oct-31 00:00N 37°55' W 122°22'0 0.0
2017-Oct-30 23:30N 37°55' W 122°22'0 0.0
2017-Oct-30 23:00N 37°55' W 122°22'0 0.0
2017-Oct-30 22:30N 37°55' W 122°22'0 0.0
2017-Oct-30 22:00N 37°55' W 122°22'0 0.0
2017-Oct-30 21:30N 37°55' W 122°22'0 0.0
2017-Oct-30 20:57N 37°55' W 122°22'0 0.0
2017-Oct-30 20:30N 37°55' W 122°22'0 0.0
2017-Oct-30 20:00N 37°55' W 122°22'0 0.0
2017-Oct-30 19:30N 37°55' W 122°22'0 0.0
2017-Oct-30 19:00N 37°55' W 122°22'0 0.0
2017-Oct-30 18:30N 37°55' W 122°22'0 0.0
2017-Oct-30 18:00N 37°55' W 122°22'0 0.0
2017-Oct-30 17:30N 37°55' W 122°22'0 0.0
2017-Oct-30 17:00N 37°55' W 122°22'0 0.0
2017-Oct-30 16:30N 37°55' W 122°22'0 0.0
2017-Oct-30 16:00N 37°55' W 122°22'0 0.0
2017-Oct-30 15:30N 37°55' W 122°22'0 0.0
2017-Oct-30 15:00N 37°55' W 122°22'0 0.0
2017-Oct-30 14:00N 37°55' W 122°22'0 0.0
2017-Oct-30 13:30N 37°55' W 122°22'0 0.0
2017-Oct-30 13:00N 37°55' W 122°22'0 0.0
2017-Oct-30 12:30N 37°55' W 122°22'0 0.9
2017-Oct-30 12:00N 37°55' W 122°22'1 1.7
2017-Oct-30 11:30N 37°54' W 122°23'2 4.2
2017-Oct-30 11:00N 37°55' W 122°25'510.3
2017-Oct-30 10:30N 37°50' W 122°24'4 8.9
2017-Oct-30 10:01N 37°46' W 122°21'0 0.4
2017-Oct-30 09:29N 37°46' W 122°21'0 0.0
2017-Oct-30 08:59N 37°46' W 122°21'0 0.0
2017-Oct-30 08:29N 37°46' W 122°21'0 0.0
2017-Oct-30 07:59N 37°46' W 122°21'0 0.0
2017-Oct-30 07:29N 37°46' W 122°21'0 0.0
2017-Oct-30 06:59N 37°46' W 122°21'0 0.0
2017-Oct-30 06:29N 37°46' W 122°21'0 0.0
2017-Oct-30 05:59N 37°46' W 122°21'0 0.1
2017-Oct-30 05:29N 37°46' W 122°21'0 0.1
2017-Oct-30 04:59N 37°46' W 122°21'0 0.3
2017-Oct-30 04:30N 37°46' W 122°21'0 0.3
2017-Oct-30 04:00N 37°45' W 122°21'0 0.0
2017-Oct-30 03:31N 37°45' W 122°21'0 0.0
2017-Oct-30 03:00N 37°45' W 122°21'0 0.0
2017-Oct-30 02:30N 37°45' W 122°21'0 0.1
2017-Oct-30 02:01N 37°45' W 122°21'0 0.1
2017-Oct-30 01:30N 37°45' W 122°21'0 0.0
2017-Oct-30 01:00N 37°45' W 122°21'0 0.0
2017-Oct-30 00:30N 37°45' W 122°21'0 0.1
2017-Oct-30 00:00N 37°45' W 122°21'0 0.0
2017-Oct-29 23:30N 37°45' W 122°21'0 0.0
2017-Oct-29 23:00N 37°46' W 122°21'0 0.2
2017-Oct-29 22:30N 37°46' W 122°21'0 0.2
2017-Oct-29 22:00N 37°46' W 122°21'0 0.0
2017-Oct-29 21:30N 37°46' W 122°21'0 0.0
2017-Oct-29 21:00N 37°46' W 122°21'0 0.0
2017-Oct-29 20:30N 37°46' W 122°21'0 0.0
2017-Oct-29 20:00N 37°46' W 122°21'0 0.0
2017-Oct-29 19:30N 37°46' W 122°21'0 0.0
2017-Oct-29 19:00N 37°46' W 122°21'0 0.0
2017-Oct-29 18:30N 37°46' W 122°21'0 0.0
2017-Oct-29 18:00N 37°46' W 122°21'0 0.0
2017-Oct-29 17:31N 37°46' W 122°21'0 0.2
2017-Oct-29 17:00N 37°46' W 122°21'0 0.3
2017-Oct-29 16:30N 37°45' W 122°21'0 0.1
2017-Oct-29 16:00N 37°45' W 122°21'0 0.0
2017-Oct-29 15:30N 37°45' W 122°21'0 0.1
2017-Oct-29 15:00N 37°45' W 122°21'0 0.0
2017-Oct-29 14:30N 37°45' W 122°21'0 0.0
2017-Oct-29 14:00N 37°45' W 122°21'0 0.0
2017-Oct-29 13:30N 37°45' W 122°21'0 0.0
2017-Oct-29 13:00N 37°45' W 122°21'0 0.1
2017-Oct-29 12:30N 37°45' W 122°21'0 0.0
2017-Oct-29 12:00N 37°45' W 122°21'0 0.0
2017-Oct-29 11:30N 37°45' W 122°21'0 0.1
2017-Oct-29 11:00N 37°45' W 122°21'0 0.0
2017-Oct-29 10:30N 37°46' W 122°21'0 0.1
2017-Oct-29 10:00N 37°46' W 122°21'0 0.2
2017-Oct-29 09:30N 37°46' W 122°21'0 0.2
2017-Oct-29 09:00N 37°46' W 122°21'0 0.1
2017-Oct-29 08:30N 37°46' W 122°21'0 0.1
2017-Oct-29 08:00N 37°46' W 122°21'0 0.0
2017-Oct-29 07:30N 37°46' W 122°21'0 0.0
2017-Oct-29 07:01N 37°46' W 122°21'0 0.0
2017-Oct-29 06:30N 37°46' W 122°21'0 0.0
2017-Oct-29 06:00N 37°46' W 122°21'0 0.0
2017-Oct-29 05:30N 37°46' W 122°21'0 0.0
2017-Oct-29 05:00N 37°46' W 122°21'0 0.0
2017-Oct-29 04:30N 37°46' W 122°21'0 0.0
2017-Oct-29 04:00N 37°46' W 122°21'0 0.0
2017-Oct-28 19:00N 37°46' W 122°21'0 0.1
2017-Oct-28 18:30N 37°46' W 122°21'0 0.1
2017-Oct-28 18:00N 37°46' W 122°21'0 0.0
2017-Oct-28 17:30N 37°46' W 122°21'0 0.4
2017-Oct-28 17:00N 37°46' W 122°21'0 0.1
2017-Oct-28 16:30N 37°45' W 122°21'0 0.0
2017-Oct-28 16:00N 37°45' W 122°21'0 0.0
2017-Oct-28 15:30N 37°45' W 122°21'0 0.0
2017-Oct-28 15:00N 37°45' W 122°21'0 0.1
2017-Oct-28 14:30N 37°45' W 122°21'0 0.0
2017-Oct-28 14:00N 37°45' W 122°21'0 0.1
2017-Oct-28 13:30N 37°45' W 122°21'0 0.0
2017-Oct-28 13:00N 37°45' W 122°21'0 0.1
2017-Oct-28 12:30N 37°45' W 122°21'0 0.0
2017-Oct-28 12:00N 37°45' W 122°21'0 0.0
2017-Oct-28 11:30N 37°45' W 122°21'0 0.0
2017-Oct-28 11:00N 37°45' W 122°21'0 0.0
2017-Oct-28 10:30N 37°45' W 122°21'0 0.0
2017-Oct-28 10:01N 37°45' W 122°21'0 0.0
2017-Oct-28 09:30N 37°45' W 122°21'0 0.1
2017-Oct-28 09:00N 37°45' W 122°21'0 0.2
2017-Oct-28 08:31N 37°46' W 122°21'0 0.2
2017-Oct-28 08:00N 37°46' W 122°21'0 0.1
2017-Oct-28 07:30N 37°46' W 122°21'0 0.0
2017-Oct-28 07:00N 37°46' W 122°21'0 0.0
2017-Oct-28 06:30N 37°46' W 122°21'0 0.0
2017-Oct-28 06:00N 37°46' W 122°21'0 0.1
2017-Oct-28 05:30N 37°46' W 122°21'0 0.1
2017-Oct-28 05:00N 37°46' W 122°21'0 0.0
2017-Oct-28 04:30N 37°46' W 122°21'0 0.0
2017-Oct-28 04:00N 37°46' W 122°21'0 0.0
2017-Oct-28 03:30N 37°46' W 122°21'0 0.0
2017-Oct-28 03:00N 37°46' W 122°21'0 0.0
2017-Oct-28 02:31N 37°46' W 122°21'0 0.3
2017-Oct-28 02:00N 37°46' W 122°21'0 0.3
2017-Oct-28 01:30N 37°45' W 122°21'0 0.0
2017-Oct-28 01:00N 37°45' W 122°21'0 0.1
2017-Oct-28 00:30N 37°45' W 122°21'0 0.0
2017-Oct-28 00:00N 37°45' W 122°21'0 0.0
2017-Oct-27 23:31N 37°45' W 122°21'0 0.0
2017-Oct-27 23:00N 37°45' W 122°21'0 0.0
2017-Oct-27 22:30N 37°45' W 122°21'0 0.0
2017-Oct-27 22:00N 37°45' W 122°21'0 0.1
2017-Oct-27 21:30N 37°45' W 122°21'0 0.0
2017-Oct-27 21:01N 37°45' W 122°21'0 0.0
2017-Oct-27 20:30N 37°45' W 122°21'0 0.2
2017-Oct-27 20:00N 37°46' W 122°21'0 0.2
2017-Oct-27 19:30N 37°46' W 122°21'0 0.1
2017-Oct-27 19:00N 37°46' W 122°21'0 0.0
2017-Oct-27 18:30N 37°46' W 122°21'0 0.0
2017-Oct-27 18:00N 37°46' W 122°21'0 0.0
2017-Oct-27 17:30N 37°46' W 122°21'0 0.1
2017-Oct-27 17:00N 37°46' W 122°21'0 0.0
2017-Oct-27 16:30N 37°46' W 122°21'0 0.1
2017-Oct-27 16:00N 37°46' W 122°21'0 0.2
2017-Oct-27 15:30N 37°46' W 122°21'0 0.2
2017-Oct-27 15:00N 37°45' W 122°21'0 0.1
2017-Oct-27 14:30N 37°45' W 122°21'0 0.0
2017-Oct-27 14:00N 37°45' W 122°21'0 0.1
2017-Oct-27 13:30N 37°45' W 122°21'0 0.0
2017-Oct-27 13:00N 37°45' W 122°21'0 0.0
2017-Oct-27 12:30N 37°45' W 122°21'0 0.0
2017-Oct-27 12:00N 37°45' W 122°21'0 0.1
2017-Oct-27 11:30N 37°45' W 122°21'0 0.0
2017-Oct-27 11:00N 37°45' W 122°21'0 0.0
2017-Oct-27 10:30N 37°45' W 122°21'0 0.0
2017-Oct-27 10:00N 37°45' W 122°21'0 0.0
2017-Oct-27 09:30N 37°45' W 122°21'0 0.0
2017-Oct-27 09:00N 37°45' W 122°21'0 0.0
2017-Oct-27 08:30N 37°45' W 122°21'0 0.2
2017-Oct-27 08:00N 37°45' W 122°21'0 0.4
2017-Oct-27 07:30N 37°46' W 122°21'0 0.1
2017-Oct-27 07:00N 37°46' W 122°21'0 0.0
2017-Oct-27 06:30N 37°46' W 122°21'0 0.0
2017-Oct-27 06:00N 37°46' W 122°21'0 0.0
2017-Oct-27 05:30N 37°46' W 122°21'0 0.0
2017-Oct-27 05:00N 37°46' W 122°21'0 0.0
2017-Oct-27 04:30N 37°46' W 122°21'0 0.0
2017-Oct-27 04:00N 37°46' W 122°21'0 0.0
2017-Oct-27 03:30N 37°46' W 122°21'0 0.0
2017-Oct-27 03:01N 37°46' W 122°21'0 0.0
2017-Oct-27 02:30N 37°46' W 122°21'0 0.0
2017-Oct-27 02:00N 37°46' W 122°21'0 0.0
2017-Oct-27 01:30N 37°46' W 122°21'0 0.1
2017-Oct-27 01:00N 37°46' W 122°21'0 0.4
2017-Oct-27 00:30N 37°45' W 122°21'0 0.1
2017-Oct-27 00:00N 37°45' W 122°21'0 0.0
2017-Oct-26 23:30N 37°45' W 122°21'0 0.0
2017-Oct-26 23:00N 37°45' W 122°21'0 0.0
2017-Oct-26 22:30N 37°45' W 122°21'0 0.1
2017-Oct-26 22:00N 37°45' W 122°21'0 0.0
2017-Oct-26 21:30N 37°45' W 122°21'0 0.0
2017-Oct-26 21:00N 37°45' W 122°21'0 0.0
2017-Oct-26 20:30N 37°45' W 122°21'0 0.0
2017-Oct-26 20:01N 37°45' W 122°21'0 0.0
2017-Oct-26 19:30N 37°45' W 122°21'0 0.1
2017-Oct-26 19:00N 37°46' W 122°21'0 0.2
2017-Oct-26 18:30N 37°46' W 122°21'0 0.1
2017-Oct-26 18:01N 37°46' W 122°21'0 0.0
2017-Oct-26 17:30N 37°46' W 122°21'0 0.1
2017-Oct-26 17:00N 37°46' W 122°21'  

Dump ship's entire track history